createdAt,value
2023-04-23T00:00:20.598Z,99.90
2023-04-23T00:02:55.267Z,99.90
2023-04-23T00:05:28.326Z,99.90
2023-04-23T00:07:58.463Z,99.90
2023-04-23T00:10:28.622Z,99.90
2023-04-23T00:12:59.306Z,99.90
2023-04-23T00:15:29.041Z,99.90
2023-04-23T00:17:59.150Z,99.90
2023-04-23T00:20:27.828Z,99.90
2023-04-23T00:22:56.318Z,99.90
2023-04-23T00:25:24.924Z,99.90
2023-04-23T00:27:53.572Z,99.90
2023-04-23T00:30:23.049Z,99.90
2023-04-23T00:32:51.750Z,99.90
2023-04-23T00:35:22.120Z,99.90
2023-04-23T00:37:50.916Z,99.90
2023-04-23T00:40:20.733Z,99.90
2023-04-23T00:42:52.453Z,99.90
2023-04-23T00:45:21.264Z,99.90
2023-04-23T00:47:51.070Z,99.90
2023-04-23T00:50:20.926Z,99.90
2023-04-23T00:52:51.046Z,99.90
2023-04-23T00:55:21.420Z,99.90
2023-04-23T00:57:50.730Z,99.90
2023-04-23T01:00:20.627Z,99.90
2023-04-23T01:02:50.020Z,99.90
2023-04-23T01:05:20.053Z,99.90
2023-04-23T01:07:49.268Z,99.90
2023-04-23T01:10:19.319Z,99.90
2023-04-23T01:12:50.106Z,99.90
2023-04-23T01:15:19.011Z,99.90
2023-04-23T01:17:47.750Z,99.90
2023-04-23T01:20:16.623Z,99.90
2023-04-23T01:22:46.881Z,99.90
2023-04-23T01:25:15.695Z,99.90
2023-04-23T01:27:44.581Z,99.90
2023-04-23T01:30:14.212Z,99.90
2023-04-23T01:32:44.575Z,99.90
2023-04-23T01:35:13.599Z,99.90
2023-04-23T01:37:43.681Z,99.90
2023-04-23T01:40:14.147Z,99.90
2023-04-23T01:42:43.200Z,99.90
2023-04-23T01:45:12.397Z,99.90
2023-04-23T01:47:42.327Z,99.90
2023-04-23T01:50:12.028Z,99.90
2023-04-23T01:52:41.448Z,99.90
2023-04-23T01:55:10.735Z,99.90
2023-04-23T01:57:41.506Z,99.90
2023-04-23T02:00:12.296Z,99.90
2023-04-23T02:02:45.649Z,99.90
2023-04-23T02:05:16.910Z,99.90
2023-04-23T02:07:45.620Z,99.90
2023-04-23T02:10:14.818Z,99.90
2023-04-23T02:12:45.145Z,99.90
2023-04-23T02:15:14.755Z,99.90
2023-04-23T02:17:43.510Z,99.90
2023-04-23T02:20:13.104Z,99.90
2023-04-23T02:22:42.947Z,99.90
2023-04-23T02:25:12.228Z,99.90
2023-04-23T02:27:40.824Z,99.90
2023-04-23T02:30:13.146Z,99.90
2023-04-23T02:32:43.303Z,99.90
2023-04-23T02:35:12.896Z,99.90
2023-04-23T02:37:41.493Z,99.90
2023-04-23T02:40:11.930Z,99.90
2023-04-23T02:42:42.499Z,99.90
2023-04-23T02:45:14.514Z,99.90
2023-04-23T02:47:43.714Z,99.90
2023-04-23T02:50:12.725Z,99.90
2023-04-23T02:52:41.529Z,99.90
2023-04-23T02:55:11.049Z,99.90
2023-04-23T02:57:39.820Z,99.90
2023-04-23T03:00:09.968Z,99.90
2023-04-23T03:02:40.096Z,99.90
2023-04-23T03:05:10.992Z,99.90
2023-04-23T03:07:39.909Z,99.90
2023-04-23T03:10:09.777Z,99.90
2023-04-23T03:12:38.577Z,99.90
2023-04-23T03:15:08.301Z,99.90
2023-04-23T03:17:38.777Z,99.90
2023-04-23T03:20:11.771Z,99.90
2023-04-23T03:22:40.467Z,99.90
2023-04-23T03:25:10.064Z,99.90
2023-04-23T03:27:40.294Z,99.90
2023-04-23T03:30:10.200Z,99.90
2023-04-23T03:32:38.915Z,99.90
2023-04-23T03:35:10.503Z,99.90
2023-04-23T03:37:39.059Z,99.90
2023-04-23T03:40:09.476Z,99.90
2023-04-23T03:42:38.032Z,99.90
2023-04-23T03:45:07.746Z,99.90
2023-04-23T03:47:37.053Z,99.90
2023-04-23T03:50:06.970Z,99.90
2023-04-23T03:52:37.486Z,99.90
2023-04-23T03:55:06.441Z,99.90
2023-04-23T03:57:35.155Z,99.90
2023-04-23T04:00:04.180Z,99.90
2023-04-23T04:02:32.831Z,99.90
2023-04-23T04:05:01.666Z,99.90
2023-04-23T04:07:30.412Z,99.90
2023-04-23T04:10:03.279Z,99.90
2023-04-23T04:12:31.885Z,99.90
2023-04-23T04:15:00.541Z,99.90
2023-04-23T04:17:29.216Z,99.90
2023-04-23T04:19:57.919Z,99.90
2023-04-23T04:22:26.601Z,99.90
2023-04-23T04:24:55.181Z,99.90
2023-04-23T04:27:25.296Z,99.90
2023-04-23T04:29:53.911Z,99.90
2023-04-23T04:32:23.747Z,99.90
2023-04-23T04:34:52.976Z,99.90
2023-04-23T04:37:21.672Z,99.90
2023-04-23T04:39:50.237Z,99.90
2023-04-23T04:42:19.539Z,99.90
2023-04-23T04:44:49.538Z,99.90
2023-04-23T04:47:18.736Z,99.90
2023-04-23T04:49:47.343Z,99.90
2023-04-23T04:52:15.997Z,99.90
2023-04-23T04:54:44.715Z,99.90
2023-04-23T04:57:13.536Z,99.90
2023-04-23T04:59:42.582Z,99.90
2023-04-23T05:02:13.031Z,99.90
2023-04-23T05:04:42.073Z,99.90
2023-04-23T05:07:11.279Z,99.90
2023-04-23T05:09:39.908Z,99.90
2023-04-23T05:12:08.697Z,99.90
2023-04-23T05:14:37.363Z,99.90
2023-04-23T05:17:06.033Z,99.90
2023-04-23T05:19:36.142Z,99.90
2023-04-23T05:22:04.774Z,99.90
2023-04-23T05:24:33.417Z,99.90
2023-04-23T05:27:02.004Z,99.90
2023-04-23T05:29:30.583Z,99.90
2023-04-23T05:31:59.297Z,99.90
2023-04-23T05:34:28.007Z,99.90
2023-04-23T05:36:58.016Z,99.90
2023-04-23T05:39:26.721Z,99.90
2023-04-23T05:41:55.397Z,99.90
2023-04-23T05:44:24.011Z,99.90
2023-04-23T05:46:52.739Z,99.90
2023-04-23T05:49:21.436Z,99.90
2023-04-23T05:51:50.320Z,99.90
2023-04-23T05:54:21.220Z,99.90
2023-04-23T05:56:49.940Z,99.90
2023-04-23T05:59:18.547Z,99.90
2023-04-23T06:01:48.451Z,99.90
2023-04-23T06:04:17.475Z,99.90
2023-04-23T06:06:46.249Z,99.90
2023-04-23T06:09:14.849Z,99.90
2023-04-23T06:11:45.171Z,99.90
2023-04-23T06:14:13.963Z,99.90
2023-04-23T06:16:42.659Z,99.90
2023-04-23T06:19:15.018Z,99.90
2023-04-23T06:21:43.843Z,99.90
2023-04-23T06:24:12.661Z,99.90
2023-04-23T06:26:41.556Z,99.90
2023-04-23T06:29:11.703Z,99.90
2023-04-23T06:31:41.964Z,99.90
2023-04-23T06:34:10.626Z,99.90
2023-04-23T06:36:39.193Z,99.90
2023-04-23T06:39:07.762Z,99.90
2023-04-23T06:41:36.313Z,99.90
2023-04-23T06:44:05.165Z,99.90
2023-04-23T06:46:35.250Z,99.90
2023-04-23T06:49:04.158Z,99.90
2023-04-23T06:51:33.558Z,99.90
2023-04-23T06:54:04.116Z,99.90
2023-04-23T06:56:37.833Z,99.90
2023-04-23T06:59:06.963Z,99.90
2023-04-23T07:01:37.507Z,99.90
2023-04-23T07:04:06.089Z,99.90
2023-04-23T07:06:39.549Z,99.90
2023-04-23T07:09:13.385Z,99.90
2023-04-23T07:11:45.304Z,99.90
2023-04-23T07:14:19.565Z,99.90
2023-04-23T07:17:33.348Z,99.60
2023-04-23T07:20:07.326Z,99.50
2023-04-23T07:23:08.182Z,99.00
2023-04-23T07:29:44.992Z,97.70
2023-04-23T07:40:44.176Z,96.80
2023-04-23T07:50:51.439Z,94.20
2023-04-23T07:59:59.974Z,93.00
2023-04-23T08:02:38.000Z,91.70
2023-04-23T08:05:16.820Z,92.30
2023-04-23T08:07:58.976Z,92.40
2023-04-23T08:14:16.623Z,92.10
2023-04-23T08:29:18.074Z,90.70
2023-04-23T08:31:48.520Z,90.70
2023-04-23T08:34:17.171Z,87.90
2023-04-23T08:36:49.819Z,89.00
2023-04-23T08:39:19.028Z,86.60
2023-04-23T08:41:53.740Z,86.40
2023-04-23T08:44:32.024Z,86.80
2023-04-23T08:47:07.452Z,85.80
2023-04-23T08:49:39.609Z,85.50
2023-04-23T08:52:38.053Z,83.50
2023-04-23T08:58:55.141Z,86.70
2023-04-23T09:01:57.096Z,83.00
2023-04-23T09:04:32.092Z,81.50
2023-04-23T09:07:15.315Z,82.00
2023-04-23T09:09:47.489Z,80.80
2023-04-23T09:12:22.193Z,81.50
2023-04-23T09:14:52.864Z,79.20
2023-04-23T09:17:31.835Z,79.80
2023-04-23T09:20:06.384Z,79.50
2023-04-23T09:23:08.830Z,81.70
2023-04-23T09:25:38.526Z,79.20
2023-04-23T09:28:11.148Z,77.90
2023-04-23T09:30:51.485Z,79.20
2023-04-23T09:33:20.900Z,77.00
2023-04-23T09:35:59.474Z,77.10
2023-04-23T09:41:25.644Z,77.50
2023-04-23T09:43:58.710Z,78.60
2023-04-23T09:46:44.546Z,78.50
2023-04-23T09:49:15.255Z,76.80
2023-04-23T09:51:53.777Z,75.80
2023-04-23T09:54:27.656Z,74.30
2023-04-23T09:57:07.823Z,74.30
2023-04-23T10:02:18.184Z,72.20
2023-04-23T10:05:06.519Z,74.90
2023-04-23T10:07:45.560Z,73.80
2023-04-23T10:10:14.664Z,73.50
2023-04-23T10:15:23.775Z,71.10
2023-04-23T10:17:53.131Z,72.20
2023-04-23T10:20:24.198Z,73.90
2023-04-23T10:22:57.235Z,74.40
2023-04-23T10:25:27.082Z,72.70
2023-04-23T10:27:58.160Z,72.80
2023-04-23T10:30:28.378Z,73.60
2023-04-23T10:32:58.676Z,75.40
2023-04-23T10:35:27.548Z,74.30
2023-04-23T10:37:57.748Z,73.30
2023-04-23T10:40:33.541Z,73.00
2023-04-23T10:43:02.727Z,71.60
2023-04-23T10:45:33.657Z,72.20
2023-04-23T10:48:02.297Z,73.20
2023-04-23T10:50:32.039Z,73.30
2023-04-23T10:53:04.380Z,74.30
2023-04-23T10:55:34.066Z,74.50
2023-04-23T10:58:14.963Z,73.90
2023-04-23T11:00:47.945Z,72.80
2023-04-23T11:04:20.104Z,72.40
2023-04-23T11:06:57.407Z,74.80
2023-04-23T11:09:41.881Z,72.40
2023-04-23T11:12:13.369Z,74.70
2023-04-23T11:15:07.762Z,75.00
2023-04-23T11:18:03.050Z,74.00
2023-04-23T11:20:31.856Z,75.10
2023-04-23T11:29:28.477Z,72.80
2023-04-23T11:32:03.250Z,73.00
2023-04-23T11:34:33.742Z,74.30
2023-04-23T11:37:05.182Z,72.00
2023-04-23T11:39:34.552Z,72.60
2023-04-23T11:42:03.634Z,71.80
2023-04-23T11:44:34.125Z,71.90
2023-04-23T11:47:03.844Z,71.30
2023-04-23T11:49:33.250Z,69.60
2023-04-23T11:52:04.790Z,71.50
2023-04-23T11:54:34.824Z,68.90
2023-04-23T11:57:04.959Z,70.10
2023-04-23T11:59:57.817Z,69.20
2023-04-23T12:02:26.872Z,69.30
2023-04-23T12:04:56.397Z,69.50
2023-04-23T12:07:34.223Z,66.70
2023-04-23T12:10:03.463Z,69.40
2023-04-23T12:12:36.132Z,69.10
2023-04-23T12:15:10.178Z,69.10
2023-04-23T12:17:38.955Z,67.30
2023-04-23T12:20:12.206Z,66.40
2023-04-23T12:22:41.124Z,68.60
2023-04-23T12:25:10.501Z,68.10
2023-04-23T12:27:42.861Z,68.50
2023-04-23T12:30:15.022Z,67.50
2023-04-23T12:32:45.212Z,68.10
2023-04-23T12:35:14.486Z,69.60
2023-04-23T12:37:43.514Z,67.30
2023-04-23T12:40:13.565Z,68.00
2023-04-23T12:42:42.319Z,68.60
2023-04-23T12:45:13.684Z,66.90
2023-04-23T12:47:42.775Z,66.90
2023-04-23T12:50:12.825Z,67.50
2023-04-23T12:52:41.684Z,67.20
2023-04-23T12:55:10.770Z,64.90
2023-04-23T12:57:39.371Z,66.20
2023-04-23T13:00:09.640Z,64.90
2023-04-23T13:02:40.378Z,67.80
2023-04-23T13:05:10.091Z,65.80
2023-04-23T13:07:38.780Z,65.60
2023-04-23T13:10:08.412Z,64.90
2023-04-23T13:12:37.133Z,63.50
2023-04-23T13:15:06.504Z,63.30
2023-04-23T13:17:35.784Z,63.50
2023-04-23T13:20:07.503Z,64.90
2023-04-23T13:22:36.220Z,65.00
2023-04-23T13:25:05.649Z,62.70
2023-04-23T13:27:34.468Z,61.60
2023-04-23T13:30:03.669Z,63.90
2023-04-23T13:32:33.276Z,62.70
2023-04-23T13:35:04.255Z,63.30
2023-04-23T13:37:34.424Z,61.70
2023-04-23T13:40:03.239Z,62.20
2023-04-23T13:42:31.903Z,63.70
2023-04-23T13:45:00.712Z,62.70
2023-04-23T13:47:31.808Z,63.10
2023-04-23T13:50:00.656Z,62.20
2023-04-23T13:52:29.227Z,63.50
2023-04-23T13:55:00.417Z,62.60
2023-04-23T13:57:29.171Z,62.90
2023-04-23T13:59:57.850Z,61.40
2023-04-23T14:02:26.451Z,61.60
2023-04-23T14:04:55.180Z,61.50
2023-04-23T14:07:27.919Z,60.20
2023-04-23T14:10:09.032Z,63.00
2023-04-23T14:12:39.201Z,62.40
2023-04-23T14:15:09.750Z,62.00
2023-04-23T14:17:39.576Z,61.90
2023-04-23T14:20:09.541Z,62.80
2023-04-23T14:22:38.280Z,61.50
2023-04-23T14:25:11.592Z,61.60
2023-04-23T14:27:43.149Z,60.90
2023-04-23T14:30:18.290Z,63.00
2023-04-23T14:32:49.794Z,62.30
2023-04-23T14:35:24.543Z,64.30
2023-04-23T14:37:58.052Z,62.80
2023-04-23T14:40:28.158Z,62.60
2023-04-23T14:43:01.858Z,62.60
2023-04-23T14:45:37.144Z,61.30
2023-04-23T14:48:06.088Z,62.20
2023-04-23T14:50:34.891Z,60.90
2023-04-23T14:53:07.243Z,60.40
2023-04-23T14:55:38.952Z,60.70
2023-04-23T14:58:07.802Z,60.70
2023-04-23T15:00:36.499Z,62.00
2023-04-23T15:03:10.406Z,61.80
2023-04-23T15:05:40.236Z,61.50
2023-04-23T15:08:09.047Z,61.50
2023-04-23T15:10:39.249Z,60.60
2023-04-23T15:13:10.497Z,60.30
2023-04-23T15:15:45.378Z,62.30
2023-04-23T15:18:15.786Z,61.30
2023-04-23T15:20:45.338Z,60.70
2023-04-23T15:23:13.940Z,60.90
2023-04-23T15:25:44.616Z,62.50
2023-04-23T15:28:13.357Z,62.60
2023-04-23T15:30:44.955Z,62.90
2023-04-23T15:33:15.642Z,62.70
2023-04-23T15:35:44.297Z,61.70
2023-04-23T15:38:13.039Z,62.80
2023-04-23T15:40:43.939Z,62.50
2023-04-23T15:43:15.299Z,62.30
2023-04-23T15:45:48.190Z,63.60
2023-04-23T15:48:17.269Z,63.50
2023-04-23T15:50:46.795Z,63.10
2023-04-23T15:53:15.754Z,62.90
2023-04-23T15:55:49.107Z,62.70
2023-04-23T15:58:20.228Z,64.70
2023-04-23T16:00:49.477Z,63.30
2023-04-23T16:03:18.241Z,64.40
2023-04-23T16:05:48.467Z,65.60
2023-04-23T16:08:17.575Z,66.20
2023-04-23T16:10:46.655Z,66.00
2023-04-23T16:13:15.336Z,65.30
2023-04-23T16:15:45.672Z,65.00
2023-04-23T16:18:14.790Z,66.40
2023-04-23T16:20:43.409Z,65.30
2023-04-23T16:23:12.591Z,65.20
2023-04-23T16:25:41.597Z,66.40
2023-04-23T16:28:10.319Z,66.00
2023-04-23T16:30:39.282Z,67.30
2023-04-23T16:33:09.719Z,66.70
2023-04-23T16:35:38.576Z,66.70
2023-04-23T16:38:11.069Z,67.80
2023-04-23T16:40:40.150Z,67.80
2023-04-23T16:43:08.822Z,68.60
2023-04-23T16:45:38.798Z,67.70
2023-04-23T16:48:13.162Z,70.10
2023-04-23T16:50:43.103Z,69.60
2023-04-23T16:53:12.179Z,70.10
2023-04-23T16:55:41.078Z,71.50
2023-04-23T16:58:10.395Z,70.70
2023-04-23T17:00:39.082Z,70.60
2023-04-23T17:03:09.314Z,69.80
2023-04-23T17:05:40.992Z,70.50
2023-04-23T17:08:09.592Z,71.60
2023-04-23T17:10:38.092Z,70.70
2023-04-23T17:13:06.639Z,70.10
2023-04-23T17:15:35.139Z,72.00
2023-04-23T17:18:04.295Z,71.10
2023-04-23T17:20:35.454Z,72.20
2023-04-23T17:23:04.008Z,73.30
2023-04-23T17:25:32.728Z,74.10
2023-04-23T17:28:01.336Z,73.30
2023-04-23T17:30:30.213Z,73.20
2023-04-23T17:32:58.990Z,73.00
2023-04-23T17:35:27.720Z,73.00
2023-04-23T17:37:57.805Z,72.60
2023-04-23T17:40:26.431Z,73.20
2023-04-23T17:42:55.251Z,74.20
2023-04-23T17:45:23.834Z,73.90
2023-04-23T17:47:54.793Z,73.50
2023-04-23T17:50:23.555Z,73.70
2023-04-23T17:53:29.913Z,73.50
2023-04-23T17:56:03.229Z,73.90
2023-04-23T17:58:38.573Z,74.80
2023-04-23T18:01:09.286Z,74.90
2023-04-23T18:03:38.564Z,74.80
2023-04-23T18:06:09.730Z,75.00
2023-04-23T18:08:41.203Z,75.30
2023-04-23T18:11:13.573Z,75.40
2023-04-23T18:13:43.438Z,75.80
2023-04-23T18:16:12.563Z,75.80
2023-04-23T18:18:42.670Z,75.90
2023-04-23T18:21:13.610Z,76.70
2023-04-23T18:23:44.170Z,76.70
2023-04-23T18:26:15.349Z,77.10
2023-04-23T18:28:47.817Z,77.40
2023-04-23T18:31:20.437Z,77.40
2023-04-23T18:33:54.798Z,77.60
2023-04-23T18:36:29.183Z,78.00
2023-04-23T18:39:21.687Z,78.40
2023-04-23T18:41:53.883Z,78.80
2023-04-23T18:44:23.197Z,79.10
2023-04-23T18:46:52.844Z,78.60
2023-04-23T18:49:40.663Z,78.90
2023-04-23T18:52:09.378Z,79.30
2023-04-23T18:54:38.048Z,80.00
2023-04-23T18:57:08.124Z,79.80
2023-04-23T18:59:37.772Z,80.00
2023-04-23T19:02:08.448Z,80.20
2023-04-23T19:04:38.356Z,80.60
2023-04-23T19:07:06.949Z,80.90
2023-04-23T19:09:35.466Z,81.10
2023-04-23T19:12:04.295Z,81.60
2023-04-23T19:14:34.400Z,81.90
2023-04-23T19:17:03.096Z,82.10
2023-04-23T19:19:35.435Z,82.00
2023-04-23T19:22:04.436Z,82.10
2023-04-23T19:24:34.646Z,82.10
2023-04-23T19:27:06.064Z,82.20
2023-04-23T19:29:36.214Z,82.40
2023-04-23T19:32:04.936Z,81.90
2023-04-23T19:34:33.745Z,82.70
2023-04-23T19:37:02.316Z,82.50
2023-04-23T19:39:31.177Z,82.50
2023-04-23T19:42:00.041Z,82.50
2023-04-23T19:44:28.622Z,82.10
2023-04-23T19:46:58.843Z,82.30
2023-04-23T19:49:27.411Z,81.90
2023-04-23T19:51:57.202Z,81.20
2023-04-23T19:54:25.713Z,81.50
2023-04-23T19:56:54.316Z,81.20
2023-04-23T19:59:23.059Z,81.70
2023-04-23T20:02:08.458Z,81.60
2023-04-23T20:04:37.237Z,82.10
2023-04-23T20:07:06.862Z,81.80
2023-04-23T20:09:36.140Z,82.30
2023-04-23T20:12:04.887Z,82.10
2023-04-23T20:14:33.512Z,82.20
2023-04-23T20:17:02.313Z,82.30
2023-04-23T20:19:33.375Z,82.60
2023-04-23T20:22:02.692Z,82.50
2023-04-23T20:24:31.435Z,82.90
2023-04-23T20:26:59.992Z,83.10
2023-04-23T20:29:31.191Z,83.10
2023-04-23T20:32:00.149Z,83.40
2023-04-23T20:34:28.689Z,84.30
2023-04-23T20:36:59.948Z,84.20
2023-04-23T20:39:28.514Z,84.20
2023-04-23T20:41:58.004Z,84.50
2023-04-23T20:44:26.560Z,84.80
2023-04-23T20:46:58.043Z,85.00
2023-04-23T20:49:27.188Z,86.10
2023-04-23T20:51:55.933Z,85.70
2023-04-23T20:54:26.176Z,86.00
2023-04-23T20:56:57.856Z,87.20
2023-04-23T20:59:26.550Z,87.20
2023-04-23T21:01:55.457Z,87.20
2023-04-23T21:04:24.432Z,88.70
2023-04-23T21:06:53.184Z,88.30
2023-04-23T21:09:21.654Z,88.20
2023-04-23T21:11:52.014Z,88.20
2023-04-23T21:14:20.942Z,88.30
2023-04-23T21:16:49.725Z,88.30
2023-04-23T21:19:18.320Z,88.60
2023-04-23T21:21:46.939Z,89.00
2023-04-23T21:24:15.687Z,90.10
2023-04-23T21:26:44.610Z,90.30
2023-04-23T21:29:14.886Z,90.40
2023-04-23T21:31:47.089Z,90.20
2023-04-23T21:34:16.576Z,90.00
2023-04-23T21:36:46.034Z,90.50
2023-04-23T21:39:14.731Z,90.60
2023-04-23T21:41:43.574Z,90.80
2023-04-23T21:44:13.801Z,90.70
2023-04-23T21:46:43.451Z,90.80
2023-04-23T21:49:12.257Z,90.70
2023-04-23T21:51:41.282Z,90.70
2023-04-23T21:54:10.249Z,91.10
2023-04-23T21:56:39.660Z,91.50
2023-04-23T21:59:08.396Z,91.40
2023-04-23T22:01:38.532Z,91.90
2023-04-23T22:04:08.839Z,91.20
2023-04-23T22:06:37.812Z,91.60
2023-04-23T22:09:06.994Z,91.70
2023-04-23T22:11:37.634Z,92.00
2023-04-23T22:14:07.535Z,91.70
2023-04-23T22:16:37.798Z,92.00
2023-04-23T22:19:06.497Z,92.30
2023-04-23T22:21:35.170Z,92.30
2023-04-23T22:24:04.912Z,92.60
2023-04-23T22:26:34.163Z,93.00
2023-04-23T22:29:02.957Z,93.10
2023-04-23T22:31:31.678Z,93.20
2023-04-23T22:34:04.274Z,93.10
2023-04-23T22:36:33.292Z,93.40
2023-04-23T22:39:03.064Z,93.40
2023-04-23T22:41:33.177Z,93.60
2023-04-23T22:44:02.458Z,93.60
2023-04-23T22:46:32.029Z,94.10
2023-04-23T22:49:03.068Z,93.90
2023-04-23T22:51:33.632Z,94.00
2023-04-23T22:54:02.329Z,94.60
2023-04-23T22:56:31.498Z,94.50
2023-04-23T22:59:00.130Z,94.50
2023-04-23T23:01:28.840Z,94.60
2023-04-23T23:03:57.617Z,94.90
2023-04-23T23:06:28.205Z,95.00
2023-04-23T23:08:56.896Z,95.20
2023-04-23T23:11:26.044Z,95.80
2023-04-23T23:13:54.877Z,96.00
2023-04-23T23:16:23.803Z,96.30
2023-04-23T23:18:52.439Z,96.10
2023-04-23T23:21:21.968Z,96.20
2023-04-23T23:23:52.209Z,96.70
2023-04-23T23:26:21.576Z,97.10
2023-04-23T23:28:50.139Z,97.30
2023-04-23T23:31:18.864Z,97.70
2023-04-23T23:33:47.605Z,98.30
2023-04-23T23:36:16.187Z,98.30
2023-04-23T23:38:44.889Z,98.20
2023-04-23T23:41:14.973Z,98.40
2023-04-23T23:43:43.527Z,98.40
2023-04-23T23:46:12.126Z,98.60
2023-04-23T23:48:40.829Z,98.60
2023-04-23T23:51:09.577Z,98.80
2023-04-23T23:53:38.197Z,99.20
2023-04-23T23:56:07.268Z,99.50
2023-04-23T23:58:37.430Z,99.70
